Time;durP1;ratioP1;P1;durP2;ratioP2;P2;SDS_P1;SDS_P2;PMS_P1;PMS_P2;Temp;Humidity;BMP_temperature;BMP_pressure;BME280_temperature;BME280_humidity;BME280_pressure;Samples;Min_cycle;Max_cycle;Signal;HPM_P1;HPM_P2
2021/04/06 00:01:01;;;;;;;15.98;9.63;;;;;;;;;;5015517;28;20397;-48
2021/04/06 00:03:28;;;;;;;14.48;8.43;;;;;;;;;;5015959;28;20104;-47
2021/04/06 00:05:57;;;;;;;17.15;9.40;;;;;;;;;;5015550;28;20030;-48
2021/04/06 00:08:24;;;;;;;16.65;8.98;;;;;;;;;;5015439;28;20029;-47
2021/04/06 00:10:54;;;;;;;13.52;7.65;;;;;;;;;;5015751;28;20052;-48
2021/04/06 00:13:21;;;;;;;15.98;9.43;;;;;;;;;;5015364;28;20045;-48
2021/04/06 00:15:48;;;;;;;12.85;8.18;;;;;;;;;;5015191;28;20121;-50
2021/04/06 00:18:16;;;;;;;12.52;7.07;;;;;;;;;;5015028;28;20022;-48
2021/04/06 00:20:44;;;;;;;14.55;8.00;;;;;;;;;;5015325;28;20068;-48
2021/04/06 00:23:14;;;;;;;12.80;7.60;;;;;;;;;;5015140;28;20029;-48
2021/04/06 00:25:42;;;;;;;13.63;7.53;;;;;;;;;;5015468;28;20032;-50
2021/04/06 00:28:10;;;;;;;16.40;8.40;;;;;;;;;;5014928;28;20041;-47
2021/04/06 00:30:37;;;;;;;13.45;8.23;;;;;;;;;;5015020;28;20453;-48
2021/04/06 00:33:07;;;;;;;13.32;7.90;;;;;;;;;;5014919;28;20026;-48
2021/04/06 00:35:36;;;;;;;14.50;8.07;;;;;;;;;;5014923;28;20540;-48
2021/04/06 00:38:02;;;;;;;13.00;7.95;;;;;;;;;;5014837;28;20028;-50
2021/04/06 00:40:32;;;;;;;12.55;7.25;;;;;;;;;;5015399;28;20065;-47
2021/04/06 00:42:59;;;;;;;12.45;7.97;;;;;;;;;;5015032;28;20033;-50
2021/04/06 00:45:26;;;;;;;12.20;8.02;;;;;;;;;;5014460;28;20030;-44
2021/04/06 00:48:12;;;;;;;14.73;7.68;;;;;;;;;;5014971;28;20034;-47
2021/04/06 00:50:38;;;;;;;14.70;8.40;;;;;;;;;;5014929;28;20045;-50
2021/04/06 00:53:05;;;;;;;13.00;7.65;;;;;;;;;;5014658;28;20022;-48
2021/04/06 00:55:36;;;;;;;11.70;7.30;;;;;;;;;;5014204;28;20032;-47
2021/04/06 00:58:07;;;;;;;11.82;7.18;;;;;;;;;;5013852;28;20100;-48
2021/04/06 01:00:34;;;;;;;14.70;7.35;;;;;;;;;;5013483;28;20054;-49
2021/04/06 01:03:07;;;;;;;13.48;7.10;;;;;;;;;;5014844;28;20045;-52
2021/04/06 01:05:56;;;;;;;12.88;7.10;;;;;;;;;;5014401;28;20076;-52
2021/04/06 01:08:23;;;;;;;14.10;7.80;;;;;;;;;;5014076;28;20053;-51
2021/04/06 01:10:50;;;;;;;12.35;7.25;;;;;;;;;;5014258;28;20029;-47
2021/04/06 01:13:17;;;;;;;10.45;6.50;;;;;;;;;;5014320;28;20477;-48
2021/04/06 01:15:43;;;;;;;11.00;6.55;;;;;;;;;;5014049;28;20018;-48
2021/04/06 01:18:09;;;;;;;11.73;6.90;;;;;;;;;;5014359;28;20377;-50
2021/04/06 01:20:35;;;;;;;11.43;6.68;;;;;;;;;;5014061;28;20042;-48
2021/04/06 01:23:02;;;;;;;13.75;8.00;;;;;;;;;;5014247;28;20105;-50
2021/04/06 01:25:33;;;;;;;13.52;7.50;;;;;;;;;;4996661;28;20084;-48
2021/04/06 01:28:09;;;;;;;14.95;8.52;;;;;;;;;;5014000;28;20025;-49
2021/04/06 01:30:46;;;;;;;15.43;8.45;;;;;;;;;;5013717;28;20026;-48
2021/04/06 01:33:13;;;;;;;12.27;7.35;;;;;;;;;;5013921;28;20465;-49
2021/04/06 01:35:39;;;;;;;14.18;7.00;;;;;;;;;;5013738;28;20022;-48
2021/04/06 01:38:06;;;;;;;14.15;8.07;;;;;;;;;;5266750;23;20397;-47
2021/04/06 01:40:32;;;;;;;12.20;7.53;;;;;;;;;;5013063;28;20025;-48
2021/04/06 01:42:59;;;;;;;13.77;7.55;;;;;;;;;;5012966;28;20026;-49
2021/04/06 01:45:25;;;;;;;15.13;8.43;;;;;;;;;;5012948;28;20093;-48
2021/04/06 01:47:52;;;;;;;13.82;7.53;;;;;;;;;;5013015;28;20021;-47
2021/04/06 01:50:18;;;;;;;16.73;8.63;;;;;;;;;;5013073;28;20026;-47
2021/04/06 01:52:50;;;;;;;15.82;8.52;;;;;;;;;;5012689;28;20030;-46
2021/04/06 01:55:17;;;;;;;13.18;8.43;;;;;;;;;;5012710;28;20038;-48
2021/04/06 01:57:46;;;;;;;15.75;8.15;;;;;;;;;;5012692;28;20026;-47
2021/04/06 02:00:41;;;;;;;14.13;7.47;;;;;;;;;;5012601;28;20117;-47
2021/04/06 02:03:06;;;;;;;19.75;9.77;;;;;;;;;;5012350;28;20034;-47
2021/04/06 02:05:33;;;;;;;16.70;9.02;;;;;;;;;;5012750;28;20041;-47
2021/04/06 02:08:06;;;;;;;15.00;8.15;;;;;;;;;;5012338;28;20025;-47
2021/04/06 02:10:33;;;;;;;12.40;7.60;;;;;;;;;;5012762;28;20060;-47
2021/04/06 02:13:06;;;;;;;13.20;7.72;;;;;;;;;;5011770;28;20022;-47
2021/04/06 02:15:32;;;;;;;13.35;8.25;;;;;;;;;;5012399;28;20025;-47
2021/04/06 02:17:58;;;;;;;15.00;8.70;;;;;;;;;;5012378;28;20467;-48
2021/04/06 02:20:25;;;;;;;13.82;8.30;;;;;;;;;;5012430;28;20108;-49
2021/04/06 02:22:55;;;;;;;14.82;9.13;;;;;;;;;;5012380;28;20524;-48
2021/04/06 02:25:21;;;;;;;12.98;8.13;;;;;;;;;;5012469;28;20189;-46
2021/04/06 02:27:47;;;;;;;14.98;8.25;;;;;;;;;;5012179;28;20026;-47
2021/04/06 02:30:14;;;;;;;14.70;8.82;;;;;;;;;;5012244;28;20025;-47
2021/04/06 02:32:40;;;;;;;20.08;10.50;;;;;;;;;;5012439;28;20026;-49
2021/04/06 02:35:08;;;;;;;22.27;11.88;;;;;;;;;;5012054;28;20515;-49
2021/04/06 02:37:39;;;;;;;16.35;9.30;;;;;;;;;;5011631;28;20125;-46
2021/04/06 02:40:06;;;;;;;70.40;23.80;;;;;;;;;;5012094;28;20049;-48
2021/04/06 02:42:52;;;;;;;54.63;24.65;;;;;;;;;;5012020;28;20032;-47
2021/04/06 02:45:23;;;;;;;61.88;24.92;;;;;;;;;;5011826;28;20026;-48
2021/04/06 02:47:50;;;;;;;104.03;38.40;;;;;;;;;;5011864;28;20022;-48
2021/04/06 02:50:27;;;;;;;82.68;33.35;;;;;;;;;;5011847;28;20485;-49
2021/04/06 02:52:54;;;;;;;57.97;23.38;;;;;;;;;;5011889;28;20024;-49
2021/04/06 02:55:21;;;;;;;81.80;27.25;;;;;;;;;;5011872;28;20072;-49
2021/04/06 02:57:48;;;;;;;59.38;23.85;;;;;;;;;;5011863;28;20033;-47
2021/04/06 03:00:30;;;;;;;49.42;21.73;;;;;;;;;;5011743;28;20026;-47
2021/04/06 03:02:57;;;;;;;48.15;19.92;;;;;;;;;;5011887;28;20022;-48
2021/04/06 03:05:30;;;;;;;32.88;15.02;;;;;;;;;;5011904;28;20113;-47
2021/04/06 03:07:56;;;;;;;30.25;14.85;;;;;;;;;;5011641;28;20022;-51
2021/04/06 03:10:22;;;;;;;20.63;12.30;;;;;;;;;;5011815;28;20080;-47
2021/04/06 03:12:49;;;;;;;22.80;12.52;;;;;;;;;;5011694;28;20478;-48
2021/04/06 03:15:21;;;;;;;20.95;12.93;;;;;;;;;;5011617;28;20049;-46
2021/04/06 03:17:48;;;;;;;25.48;13.43;;;;;;;;;;5011622;28;20022;-52
2021/04/06 03:20:15;;;;;;;28.60;14.38;;;;;;;;;;5011563;28;20026;-52
2021/04/06 03:22:42;;;;;;;36.97;16.25;;;;;;;;;;5011389;28;20491;-46
2021/04/06 03:25:11;;;;;;;38.97;16.92;;;;;;;;;;5014986;28;20029;-48
2021/04/06 03:27:37;;;;;;;29.65;12.75;;;;;;;;;;5015787;28;20031;-48
2021/04/06 03:30:03;;;;;;;28.77;13.18;;;;;;;;;;5015481;28;20038;-48
2021/04/06 03:32:30;;;;;;;17.83;10.77;;;;;;;;;;5015467;28;20123;-47
2021/04/06 03:34:56;;;;;;;17.33;9.38;;;;;;;;;;5015481;28;20018;-48
2021/04/06 03:37:22;;;;;;;16.95;9.52;;;;;;;;;;5015114;28;20054;-48
2021/04/06 03:39:49;;;;;;;20.38;10.13;;;;;;;;;;5015156;28;20034;-47
2021/04/06 03:42:25;;;;;;;19.27;10.43;;;;;;;;;;5015547;28;20056;-50
2021/04/06 03:44:51;;;;;;;20.30;11.38;;;;;;;;;;5015261;28;20032;-48
2021/04/06 03:47:18;;;;;;;24.52;14.35;;;;;;;;;;5015123;28;20056;-47
2021/04/06 03:49:48;;;;;;;22.88;13.18;;;;;;;;;;5015074;28;20041;-47
2021/04/06 03:52:14;;;;;;;22.10;12.80;;;;;;;;;;5013711;28;20022;-47
2021/04/06 03:54:46;;;;;;;22.58;11.55;;;;;;;;;;5015173;28;20033;-47
2021/04/06 03:57:22;;;;;;;24.08;12.98;;;;;;;;;;5014947;28;20061;-48
2021/04/06 03:59:49;;;;;;;27.80;13.32;;;;;;;;;;5014949;28;20026;-47
2021/04/06 04:02:15;;;;;;;20.55;12.23;;;;;;;;;;5014843;28;20033;-49
2021/04/06 04:04:41;;;;;;;26.27;12.65;;;;;;;;;;5014887;28;20029;-47
2021/04/06 04:07:07;;;;;;;29.45;12.15;;;;;;;;;;5014786;28;20076;-48
2021/04/06 04:09:34;;;;;;;19.27;9.15;;;;;;;;;;5014767;28;20042;-47
2021/04/06 04:12:00;;;;;;;12.90;7.43;;;;;;;;;;5014946;28;20034;-47
2021/04/06 04:14:26;;;;;;;16.88;8.93;;;;;;;;;;5014817;28;20511;-49
2021/04/06 04:16:55;;;;;;;16.58;9.43;;;;;;;;;;5014612;28;20026;-48
2021/04/06 04:19:21;;;;;;;17.42;9.70;;;;;;;;;;5014617;28;20037;-49
2021/04/06 04:21:48;;;;;;;17.67;9.77;;;;;;;;;;5014547;28;20026;-47
2021/04/06 04:24:14;;;;;;;16.13;9.48;;;;;;;;;;5014345;28;20088;-48
2021/04/06 04:26:40;;;;;;;28.38;13.32;;;;;;;;;;5014392;28;20365;-48
2021/04/06 04:29:07;;;;;;;23.23;11.93;;;;;;;;;;5014261;28;20037;-47
2021/04/06 04:31:33;;;;;;;22.63;10.65;;;;;;;;;;5014590;28;20025;-47
2021/04/06 04:33:59;;;;;;;19.20;10.30;;;;;;;;;;5014657;28;20053;-48
2021/04/06 04:36:25;;;;;;;24.35;11.85;;;;;;;;;;5013497;28;20097;-48
2021/04/06 04:38:51;;;;;;;24.17;11.02;;;;;;;;;;5013837;28;20100;-47
2021/04/06 04:41:17;;;;;;;24.45;11.30;;;;;;;;;;5014127;28;20022;-49
2021/04/06 04:43:43;;;;;;;21.15;10.77;;;;;;;;;;5013984;28;20116;-49
2021/04/06 04:46:09;;;;;;;21.83;12.18;;;;;;;;;;5013983;28;20030;-47
2021/04/06 04:48:35;;;;;;;24.15;12.05;;;;;;;;;;5013925;28;20543;-47
2021/04/06 04:51:02;;;;;;;17.38;9.45;;;;;;;;;;5014000;28;20030;-49
2021/04/06 04:53:28;;;;;;;11.93;7.45;;;;;;;;;;5014044;28;20030;-47
2021/04/06 04:55:54;;;;;;;20.00;11.52;;;;;;;;;;5013775;28;20033;-46
2021/04/06 04:58:20;;;;;;;19.33;10.68;;;;;;;;;;5013833;28;20026;-47
2021/04/06 05:00:46;;;;;;;20.73;10.57;;;;;;;;;;5013781;28;20474;-49
2021/04/06 05:03:12;;;;;;;21.48;12.88;;;;;;;;;;5013716;28;20040;-48
2021/04/06 05:05:38;;;;;;;25.02;13.32;;;;;;;;;;5013677;28;20485;-48
2021/04/06 05:08:04;;;;;;;23.65;13.32;;;;;;;;;;5013562;28;20029;-47
2021/04/06 05:10:30;;;;;;;24.55;13.70;;;;;;;;;;5013498;28;20109;-50
2021/04/06 05:12:57;;;;;;;30.17;16.80;;;;;;;;;;5013558;28;20030;-47
2021/04/06 05:15:23;;;;;;;35.22;18.17;;;;;;;;;;5013726;28;20038;-50
2021/04/06 05:17:49;;;;;;;32.55;16.38;;;;;;;;;;5013496;28;20032;-50
2021/04/06 05:20:15;;;;;;;28.27;14.00;;;;;;;;;;5013365;28;20109;-48
2021/04/06 05:22:41;;;;;;;21.15;12.70;;;;;;;;;;5013388;28;20029;-47
2021/04/06 05:25:07;;;;;;;24.55;13.00;;;;;;;;;;5013166;28;20095;-49
2021/04/06 05:27:34;;;;;;;23.25;12.05;;;;;;;;;;5013275;28;20100;-48
2021/04/06 05:30:00;;;;;;;21.92;10.23;;;;;;;;;;5013367;28;20122;-48
2021/04/06 05:32:26;;;;;;;15.50;9.52;;;;;;;;;;5013202;28;20029;-47
2021/04/06 05:34:52;;;;;;;17.17;10.10;;;;;;;;;;5013027;28;20135;-47
2021/04/06 05:37:18;;;;;;;18.38;9.35;;;;;;;;;;5012810;28;20354;-50
2021/04/06 05:39:44;;;;;;;17.52;9.88;;;;;;;;;;5012920;28;20022;-49
2021/04/06 05:42:12;;;;;;;15.85;8.73;;;;;;;;;;5013145;28;20041;-47
2021/04/06 05:44:41;;;;;;;14.85;8.43;;;;;;;;;;5013612;28;20022;-47
2021/04/06 05:47:12;;;;;;;18.10;9.88;;;;;;;;;;5012324;28;20398;-48
2021/04/06 05:49:38;;;;;;;16.35;7.97;;;;;;;;;;5013373;28;20037;-49
2021/04/06 05:52:05;;;;;;;12.40;6.85;;;;;;;;;;5013032;28;20037;-49
2021/04/06 05:54:31;;;;;;;14.07;7.95;;;;;;;;;;5013465;28;20034;-50
2021/04/06 05:56:57;;;;;;;15.32;6.93;;;;;;;;;;5013383;28;20044;-46
2021/04/06 05:59:23;;;;;;;15.20;6.50;;;;;;;;;;5012988;28;20025;-49
2021/04/06 06:01:49;;;;;;;18.85;6.53;;;;;;;;;;5013382;28;20026;-48
2021/04/06 06:04:17;;;;;;;12.27;6.25;;;;;;;;;;5013469;28;20022;-48
2021/04/06 06:06:43;;;;;;;11.02;6.22;;;;;;;;;;5016802;28;20026;-57
2021/04/06 06:09:11;;;;;;;9.70;5.78;;;;;;;;;;5026531;28;20427;-50
2021/04/06 06:12:16;;;;;;;14.27;7.13;;;;;;;;;;5030835;28;20083;-50
2021/04/06 06:14:48;;;;;;;13.38;6.75;;;;;;;;;;4987601;28;20066;-52
2021/04/06 06:17:18;;;;;;;12.05;6.55;;;;;;;;;;4977836;28;20037;-49
2021/04/06 06:19:45;;;;;;;14.45;7.25;;;;;;;;;;5003771;28;20048;-52
2021/04/06 06:22:13;;;;;;;14.40;7.07;;;;;;;;;;5012649;28;20034;-50
2021/04/06 06:24:42;;;;;;;12.30;7.32;;;;;;;;;;5003517;28;20033;-52
2021/04/06 06:27:32;;;;;;;13.77;8.27;;;;;;;;;;5003022;28;20037;-50
2021/04/06 06:30:18;;;;;;;14.65;8.85;;;;;;;;;;5027180;28;20043;-52
2021/04/06 06:32:44;;;;;;;14.60;8.30;;;;;;;;;;5031035;28;20028;-48
2021/04/06 06:35:10;;;;;;;14.85;8.05;;;;;;;;;;5031646;28;20424;-49
2021/04/06 06:37:36;;;;;;;9.80;6.00;;;;;;;;;;5031356;28;20647;-49
2021/04/06 06:40:04;;;;;;;10.65;4.93;;;;;;;;;;5030335;28;20440;-51
2021/04/06 06:42:32;;;;;;;8.15;4.13;;;;;;;;;;5031987;28;20112;-51
2021/04/06 06:44:58;;;;;;;8.35;4.25;;;;;;;;;;5031376;28;20033;-50
2021/04/06 06:47:26;;;;;;;9.25;4.90;;;;;;;;;;5024187;28;20013;-51
2021/04/06 06:49:54;;;;;;;9.40;5.05;;;;;;;;;;5013988;28;20029;-51
2021/04/06 06:52:20;;;;;;;8.90;4.72;;;;;;;;;;5017877;28;20152;-49
2021/04/06 06:54:46;;;;;;;10.77;4.63;;;;;;;;;;5011573;28;20026;-50
2021/04/06 06:57:13;;;;;;;7.07;3.85;;;;;;;;;;5011837;28;20112;-51
2021/04/06 06:59:43;;;;;;;8.77;4.07;;;;;;;;;;5010936;28;20060;-50
2021/04/06 07:02:24;;;;;;;9.48;4.50;;;;;;;;;;5011585;28;20100;-53
2021/04/06 07:04:51;;;;;;;7.63;4.60;;;;;;;;;;5010321;28;20533;-52
2021/04/06 07:07:17;;;;;;;9.05;4.32;;;;;;;;;;5010896;28;20531;-48
2021/04/06 07:09:44;;;;;;;10.65;5.55;;;;;;;;;;5002317;28;20043;-51
2021/04/06 07:12:11;;;;;;;9.95;4.55;;;;;;;;;;5009862;28;20036;-51
2021/04/06 07:14:39;;;;;;;9.60;4.90;;;;;;;;;;5020935;28;20068;-52
2021/04/06 07:17:06;;;;;;;8.70;4.57;;;;;;;;;;5010700;28;20026;-54
2021/04/06 07:19:36;;;;;;;8.23;5.03;;;;;;;;;;5015054;28;20034;-50
2021/04/06 07:22:03;;;;;;;11.68;5.15;;;;;;;;;;5011605;28;20133;-53
2021/04/06 07:24:32;;;;;;;10.05;4.78;;;;;;;;;;5010232;28;20335;-48
2021/04/06 07:26:58;;;;;;;9.82;4.50;;;;;;;;;;5011332;28;20064;-52
2021/04/06 07:29:26;;;;;;;9.65;4.50;;;;;;;;;;5010741;28;20030;-53
2021/04/06 07:31:53;;;;;;;10.43;4.43;;;;;;;;;;5011018;28;20417;-50
2021/04/06 07:34:19;;;;;;;10.77;4.65;;;;;;;;;;5009914;28;20485;-56
2021/04/06 07:36:45;;;;;;;10.32;5.30;;;;;;;;;;5011362;28;20377;-47
2021/04/06 07:39:12;;;;;;;9.77;4.50;;;;;;;;;;5011218;28;20049;-51
2021/04/06 07:41:43;;;;;;;7.82;4.20;;;;;;;;;;5009682;28;20029;-51
2021/04/06 07:44:09;;;;;;;9.13;3.92;;;;;;;;;;5011057;28;20505;-50
2021/04/06 07:46:36;;;;;;;10.45;3.85;;;;;;;;;;5010058;28;20028;-49
2021/04/06 07:49:02;;;;;;;12.70;4.10;;;;;;;;;;5011652;28;20373;-51
2021/04/06 07:51:29;;;;;;;8.27;4.15;;;;;;;;;;5011115;28;20408;-51
2021/04/06 07:53:58;;;;;;;9.05;3.92;;;;;;;;;;5010502;28;20026;-49
2021/04/06 07:56:43;;;;;;;10.60;3.88;;;;;;;;;;5011013;28;20030;-47
2021/04/06 07:59:09;;;;;;;7.20;3.38;;;;;;;;;;5011104;28;20454;-50
2021/04/06 08:01:35;;;;;;;9.48;4.55;;;;;;;;;;5011372;28;20097;-49
2021/04/06 08:04:03;;;;;;;8.73;4.63;;;;;;;;;;5011483;28;20120;-49
2021/04/06 08:06:39;;;;;;;11.43;4.55;;;;;;;;;;5011172;28;20033;-52
2021/04/06 08:09:26;;;;;;;7.47;3.30;;;;;;;;;;5011256;28;20038;-50
2021/04/06 08:12:04;;;;;;;8.27;3.33;;;;;;;;;;5013255;28;20442;-52
2021/04/06 08:14:37;;;;;;;7.70;4.00;;;;;;;;;;5013351;28;20446;-54
2021/04/06 08:17:22;;;;;;;7.03;3.65;;;;;;;;;;5014580;28;20109;-46
2021/04/06 08:19:52;;;;;;;8.07;4.10;;;;;;;;;;5013835;28;20369;-51
2021/04/06 08:22:37;;;;;;;8.32;3.75;;;;;;;;;;5013573;28;20114;-51
2021/04/06 08:25:21;;;;;;;8.50;3.40;;;;;;;;;;5014162;28;20500;-51
2021/04/06 08:27:50;;;;;;;9.48;3.58;;;;;;;;;;5014106;28;20018;-55
2021/04/06 08:30:19;;;;;;;9.93;3.40;;;;;;;;;;5014117;28;20076;-49
2021/04/06 08:33:00;;;;;;;6.72;3.95;;;;;;;;;;5012176;28;20563;-54
2021/04/06 08:38:28;;;;;;;6.05;3.65;;;;;;;;;;5013407;28;20041;-54
2021/04/06 08:41:03;;;;;;;6.55;3.50;;;;;;;;;;5013709;28;20036;-55
2021/04/06 08:43:38;;;;;;;7.75;3.45;;;;;;;;;;5013385;28;20515;-53
2021/04/06 08:46:07;;;;;;;5.30;2.88;;;;;;;;;;5013448;28;20615;-54
2021/04/06 08:51:24;;;;;;;6.18;3.08;;;;;;;;;;5013869;28;20037;-52
2021/04/06 08:53:52;;;;;;;5.65;3.15;;;;;;;;;;5013486;28;20446;-55
2021/04/06 08:56:19;;;;;;;6.63;3.67;;;;;;;;;;5013796;28;20034;-55
2021/04/06 08:58:45;;;;;;;9.55;3.90;;;;;;;;;;5003279;28;20120;-48
2021/04/06 09:01:11;;;;;;;8.13;3.38;;;;;;;;;;5013040;28;20029;-49
2021/04/06 09:03:38;;;;;;;8.48;3.75;;;;;;;;;;5014350;28;20109;-52
2021/04/06 09:06:08;;;;;;;10.63;3.10;;;;;;;;;;5027384;28;20037;-60
2021/04/06 09:08:53;;;;;;;34.80;4.80;;;;;;;;;;5033477;28;20037;-50
2021/04/06 09:11:20;;;;;;;7.72;2.80;;;;;;;;;;5033363;28;20017;-57
2021/04/06 09:13:50;;;;;;;9.80;3.28;;;;;;;;;;5033082;28;20029;-55
2021/04/06 09:16:23;;;;;;;6.85;3.50;;;;;;;;;;5033000;28;20017;-56
2021/04/06 09:18:49;;;;;;;;;;;;;;;;;;5033995;28;20453;-58
2021/04/06 09:21:15;;;;;;;6.65;3.05;;;;;;;;;;5024297;28;19905;-50
2021/04/06 09:23:41;;;;;;;7.25;2.80;;;;;;;;;;5033781;28;20028;-56
2021/04/06 09:26:12;;;;;;;5.57;3.05;;;;;;;;;;5033702;28;20033;-59
2021/04/06 09:28:39;;;;;;;6.43;2.85;;;;;;;;;;5033352;28;20120;-53
2021/04/06 09:31:06;;;;;;;14.68;3.35;;;;;;;;;;5033670;28;20030;-54
2021/04/06 09:33:32;;;;;;;7.85;2.85;;;;;;;;;;5033219;28;20022;-54
2021/04/06 09:35:58;;;;;;;6.75;2.90;;;;;;;;;;5033521;28;20024;-54
2021/04/06 09:38:25;;;;;;;22.15;4.20;;;;;;;;;;5033123;28;20046;-49
2021/04/06 09:40:52;;;;;;;7.95;2.80;;;;;;;;;;5033580;28;20021;-54
2021/04/06 09:43:18;;;;;;;7.75;3.30;;;;;;;;;;5033518;28;20377;-55
2021/04/06 09:45:47;;;;;;;24.17;4.03;;;;;;;;;;5033665;28;20108;-54
2021/04/06 09:48:14;;;;;;;7.97;3.03;;;;;;;;;;5033302;28;20449;-55
2021/04/06 09:50:41;;;;;;;7.63;2.83;;;;;;;;;;5033562;28;20033;-57
2021/04/06 09:53:17;;;;;;;6.80;2.85;;;;;;;;;;5033754;28;20401;-54
2021/04/06 09:55:47;;;;;;;6.35;2.83;;;;;;;;;;5033188;28;20083;-54
2021/04/06 09:58:13;;;;;;;5.28;2.88;;;;;;;;;;5032635;28;20026;-56
2021/04/06 10:00:39;;;;;;;5.50;3.03;;;;;;;;;;5032668;28;20037;-52
2021/04/06 10:03:07;;;;;;;6.47;2.47;;;;;;;;;;5033378;28;20067;-57
2021/04/06 10:05:34;;;;;;;9.52;2.72;;;;;;;;;;5033291;28;20041;-53
2021/04/06 10:08:00;;;;;;;4.57;2.33;;;;;;;;;;5033043;28;20052;-52
2021/04/06 10:10:28;;;;;;;5.47;2.88;;;;;;;;;;5033000;28;20064;-56
2021/04/06 10:12:55;;;;;;;11.50;3.38;;;;;;;;;;5032862;28;20087;-56
2021/04/06 10:15:22;;;;;;;9.18;3.78;;;;;;;;;;5032887;28;20018;-51
2021/04/06 10:17:49;;;;;;;6.65;3.63;;;;;;;;;;5033027;28;20021;-58
2021/04/06 10:20:16;;;;;;;6.72;3.42;;;;;;;;;;5033006;28;20091;-57
2021/04/06 10:22:47;;;;;;;9.05;2.20;;;;;;;;;;5033482;28;20112;-58
2021/04/06 10:25:16;;;;;;;5.22;2.17;;;;;;;;;;5032724;28;20538;-57
2021/04/06 10:27:47;;;;;;;5.00;2.70;;;;;;;;;;5032454;28;20028;-58
2021/04/06 10:30:18;;;;;;;5.03;2.15;;;;;;;;;;5032627;28;20041;-55
2021/04/06 10:32:46;;;;;;;6.75;2.47;;;;;;;;;;5032320;28;20029;-53
2021/04/06 10:35:26;;;;;;;6.90;3.03;;;;;;;;;;5032179;28;20017;-55
2021/04/06 10:37:54;;;;;;;5.25;2.35;;;;;;;;;;5032488;28;20183;-55
2021/04/06 10:40:32;;;;;;;6.38;2.72;;;;;;;;;;5032552;28;20030;-48
2021/04/06 10:43:03;;;;;;;5.55;2.75;;;;;;;;;;5032403;28;20442;-49
2021/04/06 10:45:31;;;;;;;6.82;2.22;;;;;;;;;;5032461;28;20040;-51
2021/04/06 10:48:23;;;;;;;7.30;2.70;;;;;;;;;;5032363;28;20026;-57
2021/04/06 10:50:50;;;;;;;5.05;2.20;;;;;;;;;;5030483;28;20037;-58
2021/04/06 10:53:19;;;;;;;12.07;2.63;;;;;;;;;;5032326;28;20026;-58
2021/04/06 10:55:46;;;;;;;29.58;4.25;;;;;;;;;;5032376;28;20455;-54
2021/04/06 10:58:20;;;;;;;6.95;2.72;;;;;;;;;;5032162;28;20120;-53
2021/04/06 11:00:54;;;;;;;26.52;3.83;;;;;;;;;;5032538;28;20036;-56
2021/04/06 11:03:20;;;;;;;5.38;2.60;;;;;;;;;;5032378;28;20602;-54
2021/04/06 11:05:47;;;;;;;6.45;2.90;;;;;;;;;;5032156;28;20029;-60
2021/04/06 11:08:20;;;;;;;6.85;2.63;;;;;;;;;;5032151;28;20024;-57
2021/04/06 11:10:46;;;;;;;4.78;2.15;;;;;;;;;;5032206;28;20025;-56
2021/04/06 11:13:13;;;;;;;7.55;2.65;;;;;;;;;;5032141;28;20033;-58
2021/04/06 11:15:41;;;;;;;7.22;2.50;;;;;;;;;;5032304;28;20033;-57
2021/04/06 11:18:07;;;;;;;6.30;2.58;;;;;;;;;;5032336;28;20079;-58
2021/04/06 11:20:34;;;;;;;6.50;3.13;;;;;;;;;;5032191;28;20531;-52
2021/04/06 11:23:00;;;;;;;5.28;2.53;;;;;;;;;;5031929;28;20021;-58
2021/04/06 11:25:26;;;;;;;5.20;2.28;;;;;;;;;;5032504;28;20408;-52
2021/04/06 11:27:56;;;;;;;7.90;2.38;;;;;;;;;;5031881;28;20036;-58
2021/04/06 11:30:22;;;;;;;5.50;2.28;;;;;;;;;;5032239;28;20034;-59
2021/04/06 11:32:48;;;;;;;6.25;2.22;;;;;;;;;;5032364;28;20026;-58
2021/04/06 11:35:14;;;;;;;7.35;2.50;;;;;;;;;;5032199;28;20036;-53
2021/04/06 11:37:40;;;;;;;7.82;2.40;;;;;;;;;;5032035;28;20071;-59
2021/04/06 11:40:07;;;;;;;10.93;2.75;;;;;;;;;;5032212;28;20022;-60
2021/04/06 11:42:33;;;;;;;8.07;2.70;;;;;;;;;;5031847;28;20055;-63
2021/04/06 11:44:59;;;;;;;4.45;1.98;;;;;;;;;;5033729;28;20025;-55
2021/04/06 11:47:25;;;;;;;5.22;1.90;;;;;;;;;;5035960;28;20030;-58
2021/04/06 11:49:52;;;;;;;8.23;2.00;;;;;;;;;;5035818;28;20038;-57
2021/04/06 11:52:19;;;;;;;3.95;1.90;;;;;;;;;;5035847;28;20040;-59
2021/04/06 11:54:45;;;;;;;7.50;2.72;;;;;;;;;;5035751;28;20026;-59
2021/04/06 11:57:11;;;;;;;6.03;2.00;;;;;;;;;;5035706;28;20018;-56
2021/04/06 11:59:37;;;;;;;3.45;1.80;;;;;;;;;;5035402;28;20026;-61
2021/04/06 12:02:03;;;;;;;3.97;1.98;;;;;;;;;;5035333;28;20033;-60
2021/04/06 12:04:30;;;;;;;7.32;2.00;;;;;;;;;;5035359;28;20025;-60
2021/04/06 12:06:56;;;;;;;6.40;1.92;;;;;;;;;;5035319;28;20029;-60
2021/04/06 12:09:22;;;;;;;6.88;2.53;;;;;;;;;;5035274;28;20085;-60
2021/04/06 12:11:48;;;;;;;4.78;2.40;;;;;;;;;;5035443;28;20476;-50
2021/04/06 12:14:14;;;;;;;5.13;2.38;;;;;;;;;;5034923;28;20032;-60
2021/04/06 12:16:40;;;;;;;5.80;2.05;;;;;;;;;;5035327;28;20029;-59
2021/04/06 12:19:06;;;;;;;5.20;2.00;;;;;;;;;;5034886;28;20025;-60
2021/04/06 12:21:33;;;;;;;6.50;2.72;;;;;;;;;;5035072;28;20100;-57
2021/04/06 12:23:59;;;;;;;6.47;2.15;;;;;;;;;;5034883;28;20040;-59
2021/04/06 12:26:25;;;;;;;5.28;2.08;;;;;;;;;;5034989;28;20167;-59
2021/04/06 12:28:51;;;;;;;3.72;1.63;;;;;;;;;;5034716;28;20033;-59
2021/04/06 12:31:17;;;;;;;4.25;1.83;;;;;;;;;;5035040;28;20040;-60
2021/04/06 12:33:43;;;;;;;5.50;1.75;;;;;;;;;;5035096;28;20037;-59
2021/04/06 12:36:10;;;;;;;5.18;1.90;;;;;;;;;;5034894;28;20477;-60
2021/04/06 12:38:36;;;;;;;6.55;2.40;;;;;;;;;;5034635;28;20124;-55
2021/04/06 12:41:03;;;;;;;6.10;2.50;;;;;;;;;;5034777;28;20063;-58
2021/04/06 12:43:29;;;;;;;6.10;2.45;;;;;;;;;;5034611;28;20037;-59
2021/04/06 12:45:55;;;;;;;4.40;1.90;;;;;;;;;;5034392;28;20029;-60
2021/04/06 12:48:21;;;;;;;6.30;2.22;;;;;;;;;;5034726;28;20025;-45
2021/04/06 12:50:47;;;;;;;5.57;2.45;;;;;;;;;;5034509;28;20468;-60
2021/04/06 12:53:13;;;;;;;6.95;2.40;;;;;;;;;;5034917;28;20045;-59
2021/04/06 12:55:39;;;;;;;6.10;2.13;;;;;;;;;;5034559;28;20034;-60
2021/04/06 12:58:05;;;;;;;6.00;2.45;;;;;;;;;;5034186;28;20040;-58
2021/04/06 13:00:31;;;;;;;5.43;2.05;;;;;;;;;;5034163;28;20025;-59
2021/04/06 13:02:58;;;;;;;5.80;2.22;;;;;;;;;;5034444;28;20022;-57
2021/04/06 13:05:24;;;;;;;4.30;1.83;;;;;;;;;;5034589;28;20412;-56
2021/04/06 13:07:50;;;;;;;5.85;2.58;;;;;;;;;;5034532;28;20021;-56
2021/04/06 13:10:17;;;;;;;6.45;2.33;;;;;;;;;;5034125;28;20540;-57
2021/04/06 13:12:43;;;;;;;13.85;3.10;;;;;;;;;;5034291;28;20099;-50
2021/04/06 13:15:09;;;;;;;7.90;2.50;;;;;;;;;;5033604;28;20486;-56
2021/04/06 13:17:36;;;;;;;4.55;2.15;;;;;;;;;;5034052;28;20125;-58
2021/04/06 13:20:02;;;;;;;4.15;2.05;;;;;;;;;;5034082;28;20064;-57
2021/04/06 13:22:28;;;;;;;6.13;2.40;;;;;;;;;;5033930;28;20036;-58
2021/04/06 13:24:54;;;;;;;6.55;2.30;;;;;;;;;;5034042;28;20017;-57
2021/04/06 13:27:20;;;;;;;6.18;2.20;;;;;;;;;;5033805;28;20053;-58
2021/04/06 13:29:46;;;;;;;4.45;2.15;;;;;;;;;;5033755;28;20029;-60
2021/04/06 13:32:12;;;;;;;3.78;1.88;;;;;;;;;;5034174;28;20113;-60
2021/04/06 13:34:38;;;;;;;7.18;2.13;;;;;;;;;;5033752;28;20116;-56
2021/04/06 13:37:04;;;;;;;10.10;2.28;;;;;;;;;;5033362;28;20025;-56
2021/04/06 13:39:30;;;;;;;6.97;2.05;;;;;;;;;;5033977;28;20056;-59
2021/04/06 13:41:57;;;;;;;5.93;2.10;;;;;;;;;;5033256;28;20029;-56
2021/04/06 13:44:23;;;;;;;7.40;2.63;;;;;;;;;;5033401;28;20465;-60
2021/04/06 13:46:49;;;;;;;6.55;2.00;;;;;;;;;;5033203;28;20033;-58
2021/04/06 13:49:15;;;;;;;4.03;1.90;;;;;;;;;;5033121;28;20148;-59
2021/04/06 13:51:41;;;;;;;9.38;2.88;;;;;;;;;;5032921;28;20056;-57
2021/04/06 13:54:07;;;;;;;4.82;2.33;;;;;;;;;;5033018;28;20461;-58
2021/04/06 13:56:36;;;;;;;4.28;2.25;;;;;;;;;;5033463;28;20025;-54
2021/04/06 13:59:03;;;;;;;5.43;2.28;;;;;;;;;;5033456;28;20026;-60
2021/04/06 14:01:29;;;;;;;4.43;2.00;;;;;;;;;;5033138;28;20450;-58
2021/04/06 14:03:55;;;;;;;7.85;2.20;;;;;;;;;;5033305;28;20147;-58
2021/04/06 14:06:21;;;;;;;7.30;2.17;;;;;;;;;;5033275;28;20029;-59
2021/04/06 14:08:47;;;;;;;4.00;1.88;;;;;;;;;;5032143;28;20112;-59
2021/04/06 14:11:13;;;;;;;9.05;2.60;;;;;;;;;;5033322;28;20039;-57
2021/04/06 14:13:39;;;;;;;5.47;1.83;;;;;;;;;;5033355;28;20409;-61
2021/04/06 14:16:06;;;;;;;12.10;2.70;;;;;;;;;;5032757;28;20116;-57
2021/04/06 14:18:32;;;;;;;5.50;2.03;;;;;;;;;;5033084;28;20108;-58
2021/04/06 14:20:59;;;;;;;6.65;2.70;;;;;;;;;;5033090;28;20025;-47
2021/04/06 14:23:27;;;;;;;4.10;2.17;;;;;;;;;;5032779;28;20022;-50
2021/04/06 14:25:53;;;;;;;6.25;2.42;;;;;;;;;;5032691;28;20060;-50
2021/04/06 14:28:21;;;;;;;4.47;2.10;;;;;;;;;;5032997;28;20021;-50
2021/04/06 14:30:48;;;;;;;6.90;2.42;;;;;;;;;;5032688;28;20025;-56
2021/04/06 14:33:16;;;;;;;6.28;2.40;;;;;;;;;;5032814;28;20025;-56
2021/04/06 14:35:42;;;;;;;5.30;2.10;;;;;;;;;;5032562;28;20034;-58
2021/04/06 14:38:08;;;;;;;3.67;1.92;;;;;;;;;;5032217;28;20042;-50
2021/04/06 14:40:35;;;;;;;8.05;2.50;;;;;;;;;;5032402;28;20468;-59
2021/04/06 14:43:07;;;;;;;7.82;2.63;;;;;;;;;;5032560;28;20044;-59
2021/04/06 14:45:34;;;;;;;5.47;1.90;;;;;;;;;;5032444;28;20372;-61